createdAt,value
2019-05-19T00:00:46.115Z,16.41
2019-05-19T00:02:49.939Z,16.49
2019-05-19T00:04:53.736Z,16.52
2019-05-19T00:06:57.497Z,16.53
2019-05-19T00:09:01.317Z,16.50
2019-05-19T00:11:05.205Z,16.38
2019-05-19T00:13:09.020Z,16.26
2019-05-19T00:15:12.899Z,16.23
2019-05-19T00:17:16.643Z,16.23
2019-05-19T00:19:26.611Z,16.27
2019-05-19T00:21:25.969Z,16.31
2019-05-19T00:23:29.776Z,16.36
2019-05-19T00:25:34.393Z,16.37
2019-05-19T00:27:38.361Z,16.34
2019-05-19T00:29:42.194Z,16.27
2019-05-19T00:31:46.032Z,16.16
2019-05-19T00:33:49.817Z,16.05
2019-05-19T00:35:53.685Z,15.95
2019-05-19T00:37:57.558Z,15.91
2019-05-19T00:40:01.342Z,15.89
2019-05-19T00:42:06.297Z,15.79
2019-05-19T00:44:10.066Z,15.78
2019-05-19T00:46:13.955Z,15.78
2019-05-19T00:48:17.730Z,15.82
2019-05-19T00:50:21.626Z,15.83
2019-05-19T00:52:25.360Z,15.86
2019-05-19T00:54:29.178Z,15.87
2019-05-19T00:56:33.827Z,15.89
2019-05-19T00:58:40.084Z,15.87
2019-05-19T01:00:43.933Z,15.85
2019-05-19T01:02:47.668Z,15.82
2019-05-19T01:04:51.464Z,15.83
2019-05-19T01:06:55.344Z,15.87
2019-05-19T01:09:00.107Z,15.86
2019-05-19T01:11:04.050Z,15.87
2019-05-19T01:13:07.804Z,15.86
2019-05-19T01:15:11.796Z,15.83
2019-05-19T01:17:15.617Z,15.79
2019-05-19T01:19:19.430Z,15.74
2019-05-19T01:21:23.870Z,15.69
2019-05-19T01:23:27.637Z,15.54
2019-05-19T01:25:31.531Z,15.40
2019-05-19T01:27:35.342Z,15.34
2019-05-19T01:29:39.175Z,15.32
2019-05-19T01:31:43.041Z,15.27
2019-05-19T01:33:46.871Z,15.25
2019-05-19T01:35:50.696Z,15.27
2019-05-19T01:37:56.421Z,15.28
2019-05-19T01:40:00.321Z,15.27
2019-05-19T01:42:04.214Z,15.25
2019-05-19T01:44:08.106Z,15.21
2019-05-19T01:46:11.842Z,15.19
2019-05-19T01:48:15.628Z,15.20
2019-05-19T01:50:20.179Z,15.24
2019-05-19T01:52:23.946Z,15.25
2019-05-19T01:54:27.779Z,15.21
2019-05-19T01:56:31.583Z,15.13
2019-05-19T01:58:35.444Z,15.02
2019-05-19T02:00:39.192Z,15.00
2019-05-19T02:02:43.060Z,14.97
2019-05-19T02:04:46.909Z,14.98
2019-05-19T02:06:50.698Z,14.99
2019-05-19T02:08:54.486Z,14.99
2019-05-19T02:10:58.289Z,14.99
2019-05-19T02:13:05.041Z,14.96
2019-05-19T02:15:08.388Z,14.96
2019-05-19T02:17:12.170Z,14.93
2019-05-19T02:19:16.105Z,14.85
2019-05-19T02:21:19.935Z,14.73
2019-05-19T02:23:23.661Z,14.59
2019-05-19T02:25:27.550Z,14.49
2019-05-19T02:27:31.367Z,14.41
2019-05-19T02:29:35.210Z,14.33
2019-05-19T02:31:38.974Z,14.27
2019-05-19T02:33:42.867Z,14.23
2019-05-19T02:35:49.762Z,14.21
2019-05-19T02:37:53.572Z,14.17
2019-05-19T02:39:57.522Z,14.14
2019-05-19T02:42:04.072Z,14.07
2019-05-19T02:44:08.492Z,13.97
2019-05-19T02:46:12.748Z,13.99
2019-05-19T02:48:18.138Z,14.05
2019-05-19T02:50:22.868Z,14.12
2019-05-19T02:52:29.427Z,14.15
2019-05-19T02:54:34.961Z,14.13
2019-05-19T02:56:40.207Z,14.10
2019-05-19T02:58:44.548Z,14.04
2019-05-19T03:00:48.294Z,14.00
2019-05-19T03:02:52.096Z,14.00
2019-05-19T03:04:55.938Z,13.96
2019-05-19T03:07:00.740Z,13.96
2019-05-19T03:09:05.418Z,14.00
2019-05-19T03:11:09.280Z,14.05
2019-05-19T03:13:13.166Z,14.09
2019-05-19T03:15:17.156Z,14.11
2019-05-19T03:17:20.870Z,14.13
2019-05-19T03:19:24.792Z,14.15
2019-05-19T03:21:28.592Z,14.15
2019-05-19T03:23:32.375Z,14.15
2019-05-19T03:25:36.208Z,14.14
2019-05-19T03:27:40.001Z,14.13
2019-05-19T03:29:48.200Z,14.13
2019-05-19T03:32:12.506Z,14.08
2019-05-19T03:34:15.155Z,14.04
2019-05-19T03:36:18.968Z,14.01
2019-05-19T03:38:22.918Z,13.97
2019-05-19T03:40:27.703Z,13.93
2019-05-19T03:42:31.482Z,13.93
2019-05-19T03:44:35.315Z,13.90
2019-05-19T03:46:39.116Z,13.90
2019-05-19T03:48:42.983Z,13.85
2019-05-19T03:50:47.744Z,13.81
2019-05-19T03:52:51.536Z,13.81
2019-05-19T03:54:55.329Z,13.80
2019-05-19T03:56:59.143Z,13.80
2019-05-19T03:59:02.978Z,13.78
2019-05-19T04:01:06.768Z,13.77
2019-05-19T04:03:10.640Z,13.77
2019-05-19T04:05:15.724Z,13.75
2019-05-19T04:07:19.494Z,13.75
2019-05-19T04:09:23.280Z,13.75
2019-05-19T04:11:27.106Z,13.72
2019-05-19T04:13:30.887Z,13.72
2019-05-19T04:15:34.711Z,13.72
2019-05-19T04:17:38.539Z,13.73
2019-05-19T04:19:42.487Z,13.74
2019-05-19T04:21:49.114Z,13.75
2019-05-19T04:23:51.753Z,13.73
2019-05-19T04:25:56.491Z,13.74
2019-05-19T04:28:00.273Z,13.77
2019-05-19T04:30:04.576Z,13.80
2019-05-19T04:32:08.310Z,13.81
2019-05-19T04:34:12.115Z,13.85
2019-05-19T04:36:17.014Z,13.88
2019-05-19T04:38:20.844Z,13.90
2019-05-19T04:40:24.628Z,13.88
2019-05-19T04:42:28.459Z,13.90
2019-05-19T04:44:32.247Z,13.89
2019-05-19T04:46:36.976Z,13.88
2019-05-19T04:48:40.785Z,13.86
2019-05-19T04:50:44.582Z,13.88
2019-05-19T04:52:48.408Z,13.87
2019-05-19T04:54:52.182Z,13.85
2019-05-19T04:56:55.986Z,13.86
2019-05-19T04:58:59.783Z,13.88
2019-05-19T05:01:03.684Z,13.89
2019-05-19T05:03:07.493Z,13.88
2019-05-19T05:05:12.266Z,13.89
2019-05-19T05:07:17.179Z,13.91
2019-05-19T05:09:20.972Z,13.90
2019-05-19T05:11:25.788Z,13.89
2019-05-19T05:13:29.595Z,13.90
2019-05-19T05:15:33.479Z,13.93
2019-05-19T05:17:37.302Z,13.94
2019-05-19T05:19:41.095Z,13.98
2019-05-19T05:21:45.943Z,14.00
2019-05-19T05:23:49.732Z,13.99
2019-05-19T05:25:53.544Z,14.03
2019-05-19T05:27:57.341Z,14.05
2019-05-19T05:30:01.154Z,14.10
2019-05-19T05:32:05.940Z,14.15
2019-05-19T05:34:09.834Z,14.21
2019-05-19T05:36:13.570Z,14.26
2019-05-19T05:38:17.382Z,14.32
2019-05-19T05:40:21.240Z,14.38
2019-05-19T05:42:27.065Z,14.42
2019-05-19T05:44:31.852Z,14.45
2019-05-19T05:46:35.766Z,14.54
2019-05-19T05:48:40.570Z,14.65
2019-05-19T05:50:44.390Z,14.74
2019-05-19T05:52:48.224Z,14.83
2019-05-19T05:54:52.015Z,14.90
2019-05-19T05:56:55.810Z,14.96
2019-05-19T05:58:59.617Z,15.04
2019-05-19T06:01:03.427Z,15.15
2019-05-19T06:03:07.220Z,15.26
2019-05-19T06:05:11.185Z,15.35
2019-05-19T06:07:14.924Z,15.39
2019-05-19T06:09:18.728Z,15.45
2019-05-19T06:11:22.517Z,15.54
2019-05-19T06:13:26.340Z,15.63
2019-05-19T06:15:30.178Z,15.68
2019-05-19T06:17:33.972Z,15.68
2019-05-19T06:19:39.782Z,15.65
2019-05-19T06:21:43.603Z,15.65
2019-05-19T06:23:47.377Z,15.69
2019-05-19T06:25:51.190Z,15.77
2019-05-19T06:27:55.021Z,15.83
2019-05-19T06:29:58.807Z,15.94
2019-05-19T06:32:09.622Z,16.03
2019-05-19T06:34:14.404Z,16.16
2019-05-19T06:36:18.289Z,16.26
2019-05-19T06:38:22.103Z,16.39
2019-05-19T06:40:26.899Z,16.49
2019-05-19T06:42:30.636Z,16.62
2019-05-19T06:44:34.462Z,16.75
2019-05-19T06:46:38.228Z,16.87
2019-05-19T06:48:42.037Z,16.97
2019-05-19T06:50:47.872Z,17.13
2019-05-19T06:52:51.724Z,17.26
2019-05-19T06:54:55.486Z,17.37
2019-05-19T06:56:59.305Z,17.47
2019-05-19T06:59:03.127Z,17.57
2019-05-19T07:01:06.906Z,17.68
2019-05-19T07:03:10.782Z,17.79
2019-05-19T07:05:15.676Z,17.86
2019-05-19T07:07:19.438Z,17.88
2019-05-19T07:09:23.368Z,17.92
2019-05-19T07:11:28.100Z,18.02
2019-05-19T07:13:32.902Z,18.13
2019-05-19T07:15:36.721Z,18.29
2019-05-19T07:17:40.519Z,18.47
2019-05-19T07:19:44.331Z,18.63
2019-05-19T07:21:48.217Z,18.81
2019-05-19T07:23:53.195Z,19.02
2019-05-19T07:25:56.973Z,19.22
2019-05-19T07:28:00.803Z,19.43
2019-05-19T07:30:05.088Z,19.57
2019-05-19T07:32:08.950Z,19.71
2019-05-19T07:34:13.791Z,19.83
2019-05-19T07:36:17.667Z,20.00
2019-05-19T07:38:21.525Z,20.18
2019-05-19T07:40:26.986Z,20.34
2019-05-19T07:42:31.849Z,20.48
2019-05-19T07:44:35.710Z,20.62
2019-05-19T07:46:40.556Z,20.73
2019-05-19T07:48:44.352Z,20.87
2019-05-19T07:50:49.138Z,21.03
2019-05-19T07:52:53.083Z,21.17
2019-05-19T07:54:57.867Z,21.31
2019-05-19T07:57:01.696Z,21.45
2019-05-19T07:59:07.991Z,21.58
2019-05-19T08:01:11.861Z,21.62
2019-05-19T08:05:18.330Z,21.66
2019-05-19T08:07:22.189Z,21.70
2019-05-19T08:09:25.939Z,21.75
2019-05-19T08:11:29.742Z,21.78
2019-05-19T08:13:33.538Z,21.74
2019-05-19T08:15:37.357Z,21.74
2019-05-19T08:17:41.142Z,21.74
2019-05-19T08:19:45.086Z,21.74
2019-05-19T08:21:49.023Z,21.73
2019-05-19T08:24:00.562Z,21.76
2019-05-19T08:25:58.639Z,21.81
2019-05-19T08:28:08.309Z,21.88
2019-05-19T08:30:08.489Z,22.00
2019-05-19T08:32:12.275Z,22.13
2019-05-19T08:34:16.251Z,22.21
2019-05-19T08:36:20.158Z,22.27
2019-05-19T08:38:23.983Z,22.27
2019-05-19T08:40:27.800Z,22.23
2019-05-19T08:42:31.592Z,22.20
2019-05-19T08:44:35.393Z,22.13
2019-05-19T08:46:39.193Z,22.12
2019-05-19T08:48:43.004Z,22.13
2019-05-19T08:50:46.890Z,22.17
2019-05-19T08:52:50.701Z,22.03
2019-05-19T08:54:54.524Z,22.03
2019-05-19T08:56:58.305Z,22.08
2019-05-19T08:59:02.127Z,22.05
2019-05-19T09:01:05.921Z,22.04
2019-05-19T09:03:09.802Z,22.01
2019-05-19T09:05:13.823Z,22.03
2019-05-19T09:07:17.638Z,22.03
2019-05-19T09:09:21.434Z,22.12
2019-05-19T09:11:25.341Z,22.31
2019-05-19T09:13:29.278Z,22.31
2019-05-19T09:15:33.066Z,22.48
2019-05-19T09:17:36.849Z,22.70
2019-05-19T09:19:40.783Z,22.79
2019-05-19T09:21:44.567Z,22.85
2019-05-19T09:23:48.378Z,22.92
2019-05-19T09:25:52.172Z,23.05
2019-05-19T09:27:55.976Z,23.21
2019-05-19T09:29:59.788Z,23.38
2019-05-19T09:32:03.661Z,23.59
2019-05-19T09:34:07.489Z,23.79
2019-05-19T09:36:11.289Z,23.93
2019-05-19T09:38:15.091Z,24.01
2019-05-19T09:40:19.040Z,24.04
2019-05-19T09:42:22.791Z,24.04
2019-05-19T09:44:26.606Z,24.08
2019-05-19T09:46:30.521Z,24.09
2019-05-19T09:48:34.332Z,24.13
2019-05-19T09:50:38.197Z,24.22
2019-05-19T09:52:42.023Z,24.24
2019-05-19T09:54:46.103Z,24.35
2019-05-19T09:56:49.927Z,24.40
2019-05-19T09:58:53.754Z,24.42
2019-05-19T10:00:57.665Z,24.37
2019-05-19T10:03:01.456Z,24.34
2019-05-19T10:05:06.084Z,24.32
2019-05-19T10:07:10.091Z,24.31
2019-05-19T10:09:22.250Z,24.48
2019-05-19T10:11:55.241Z,24.51
2019-05-19T10:13:59.143Z,24.54
2019-05-19T10:16:03.014Z,24.60
2019-05-19T10:18:07.782Z,24.64
2019-05-19T10:20:14.140Z,24.66
2019-05-19T10:22:18.024Z,24.64
2019-05-19T10:24:21.890Z,24.61
2019-05-19T10:26:26.713Z,24.65
2019-05-19T10:28:30.501Z,24.67
2019-05-19T10:30:34.328Z,24.70
2019-05-19T10:32:39.165Z,24.72
2019-05-19T10:34:42.973Z,24.69
2019-05-19T10:36:46.778Z,24.67
2019-05-19T10:38:50.545Z,24.62
2019-05-19T10:40:54.475Z,24.61
2019-05-19T10:43:00.342Z,24.49
2019-05-19T10:45:05.171Z,24.47
2019-05-19T10:47:08.932Z,24.47
2019-05-19T10:49:12.732Z,24.45
2019-05-19T10:51:16.534Z,24.42
2019-05-19T10:53:20.324Z,24.46
2019-05-19T10:55:35.599Z,24.46
2019-05-19T10:57:29.663Z,24.48
2019-05-19T10:59:33.532Z,24.58
2019-05-19T11:01:37.300Z,24.66
2019-05-19T11:03:41.083Z,24.75
2019-05-19T11:05:44.915Z,24.84
2019-05-19T11:07:48.706Z,24.85
2019-05-19T11:09:52.494Z,24.87
2019-05-19T11:11:56.317Z,24.92
2019-05-19T11:14:00.113Z,24.97
2019-05-19T11:16:03.999Z,25.06
2019-05-19T11:18:07.819Z,25.13
2019-05-19T11:20:12.306Z,25.15
2019-05-19T11:22:16.038Z,25.20
2019-05-19T11:24:19.840Z,25.32
2019-05-19T11:26:23.650Z,25.52
2019-05-19T11:28:27.506Z,25.69
2019-05-19T11:30:32.507Z,25.76
2019-05-19T11:32:36.282Z,25.82
2019-05-19T11:34:40.095Z,25.92
2019-05-19T11:36:43.885Z,26.04
2019-05-19T11:38:47.702Z,26.11
2019-05-19T11:40:51.839Z,26.19
2019-05-19T11:42:56.609Z,26.27
2019-05-19T11:45:00.454Z,26.33
2019-05-19T11:47:04.231Z,26.41
2019-05-19T11:49:08.020Z,26.48
2019-05-19T11:51:11.836Z,26.59
2019-05-19T11:53:15.622Z,26.76
2019-05-19T11:55:19.504Z,26.90
2019-05-19T11:57:23.246Z,27.02
2019-05-19T11:59:27.042Z,27.10
2019-05-19T12:01:30.861Z,27.22
2019-05-19T12:03:34.723Z,27.45
2019-05-19T12:05:39.514Z,27.78
2019-05-19T12:07:43.288Z,27.98
2019-05-19T12:09:48.096Z,28.01
2019-05-19T12:11:52.068Z,27.96
2019-05-19T12:13:55.805Z,28.00
2019-05-19T12:15:59.634Z,27.94
2019-05-19T12:18:03.445Z,27.85
2019-05-19T12:20:07.969Z,27.76
2019-05-19T12:22:11.751Z,27.80
2019-05-19T12:24:15.575Z,27.73
2019-05-19T12:26:23.106Z,27.64
2019-05-19T12:28:24.902Z,27.52
2019-05-19T12:30:28.904Z,27.39
2019-05-19T12:32:32.813Z,27.24
2019-05-19T12:34:36.617Z,27.13
2019-05-19T12:36:40.480Z,27.04
2019-05-19T12:38:44.344Z,26.96
2019-05-19T12:40:48.127Z,26.91
2019-05-19T12:42:51.931Z,26.89
2019-05-19T12:44:55.727Z,26.90
2019-05-19T12:46:59.531Z,26.98
2019-05-19T12:49:03.410Z,27.03
2019-05-19T12:51:07.231Z,27.03
2019-05-19T12:53:11.990Z,27.00
2019-05-19T12:55:18.266Z,26.95
2019-05-19T12:57:22.020Z,26.92
2019-05-19T12:59:25.824Z,26.88
2019-05-19T13:01:29.770Z,26.86
2019-05-19T13:03:33.563Z,26.86
2019-05-19T13:05:37.412Z,26.85
2019-05-19T13:07:41.153Z,27.15
2019-05-19T13:09:45.865Z,28.04
2019-05-19T13:11:49.665Z,29.21
2019-05-19T13:13:53.485Z,30.09
2019-05-19T13:15:57.274Z,30.35
2019-05-19T13:18:01.100Z,30.23
2019-05-19T13:20:05.291Z,30.09
2019-05-19T13:22:09.008Z,29.87
2019-05-19T13:24:12.799Z,30.00
2019-05-19T13:26:16.590Z,30.08
2019-05-19T13:28:20.416Z,29.78
2019-05-19T13:30:24.215Z,29.22
2019-05-19T13:32:28.029Z,28.62
2019-05-19T13:34:31.833Z,27.84
2019-05-19T13:36:35.628Z,27.13
2019-05-19T13:38:39.439Z,26.61
2019-05-19T13:40:44.237Z,26.29
2019-05-19T13:42:48.069Z,26.00
2019-05-19T13:44:51.847Z,25.62
2019-05-19T13:46:55.666Z,25.38
2019-05-19T13:48:59.554Z,25.22
2019-05-19T13:51:03.459Z,24.95
2019-05-19T13:53:07.316Z,24.73
2019-05-19T13:55:11.325Z,24.50
2019-05-19T13:57:15.068Z,24.34
2019-05-19T13:59:18.903Z,24.22
2019-05-19T14:01:28.674Z,24.20
2019-05-19T14:03:29.271Z,24.25
2019-05-19T14:05:33.075Z,24.38
2019-05-19T14:07:36.852Z,24.50
2019-05-19T14:09:40.674Z,24.62
2019-05-19T14:11:44.513Z,24.71
2019-05-19T14:13:48.290Z,24.77
2019-05-19T14:15:53.090Z,24.86
2019-05-19T14:17:56.897Z,24.95
2019-05-19T14:20:00.700Z,25.02
2019-05-19T14:22:04.513Z,25.03
2019-05-19T14:24:08.338Z,25.07
2019-05-19T14:26:12.192Z,25.08
2019-05-19T14:28:15.926Z,25.09
2019-05-19T14:30:20.174Z,25.07
2019-05-19T14:32:23.938Z,25.08
2019-05-19T14:34:27.735Z,25.07
2019-05-19T14:36:31.528Z,25.09
2019-05-19T14:38:36.361Z,25.12
2019-05-19T14:40:40.209Z,25.16
2019-05-19T14:42:51.302Z,25.22
2019-05-19T14:44:55.062Z,25.26
2019-05-19T14:46:58.842Z,25.30
2019-05-19T14:49:02.805Z,25.33
2019-05-19T14:51:06.561Z,25.36
2019-05-19T14:53:10.353Z,25.40
2019-05-19T14:55:15.137Z,25.44
2019-05-19T14:57:18.882Z,25.46
2019-05-19T14:59:22.701Z,25.48
2019-05-19T15:01:26.574Z,25.47
2019-05-19T15:03:30.406Z,25.45
2019-05-19T15:05:34.207Z,25.41
2019-05-19T15:07:38.003Z,25.37
2019-05-19T15:09:41.827Z,25.35
2019-05-19T15:11:45.610Z,25.33
2019-05-19T15:13:49.405Z,25.30
2019-05-19T15:15:53.216Z,25.28
2019-05-19T15:17:57.012Z,25.27
2019-05-19T15:20:00.825Z,25.25
2019-05-19T15:22:04.774Z,25.24
2019-05-19T15:24:08.542Z,25.21
2019-05-19T15:26:12.327Z,25.20
2019-05-19T15:28:16.216Z,25.22
2019-05-19T15:30:20.199Z,25.21
2019-05-19T15:32:24.002Z,25.17
2019-05-19T15:34:27.758Z,25.17
2019-05-19T15:36:32.641Z,25.19
2019-05-19T15:38:36.377Z,25.20
2019-05-19T15:40:40.207Z,25.19
2019-05-19T15:42:43.982Z,25.19
2019-05-19T15:44:47.797Z,25.19
2019-05-19T15:46:51.678Z,25.19
2019-05-19T15:48:55.509Z,25.21
2019-05-19T15:51:00.327Z,25.27
2019-05-19T15:53:04.318Z,25.29
2019-05-19T15:55:08.291Z,25.31
2019-05-19T15:57:12.142Z,25.28
2019-05-19T15:59:16.044Z,25.25
2019-05-19T16:01:19.864Z,25.24
2019-05-19T16:03:23.653Z,25.23
2019-05-19T16:05:27.456Z,25.22
2019-05-19T16:07:31.269Z,25.21
2019-05-19T16:09:35.061Z,25.20
2019-05-19T16:11:38.879Z,25.17
2019-05-19T16:13:42.703Z,25.13
2019-05-19T16:15:46.516Z,25.13
2019-05-19T16:17:51.304Z,25.12
2019-05-19T16:19:55.124Z,25.12
2019-05-19T16:21:58.899Z,25.09
2019-05-19T16:24:02.720Z,25.05
2019-05-19T16:26:06.513Z,25.02
2019-05-19T16:28:10.316Z,25.04
2019-05-19T16:30:14.278Z,25.03
2019-05-19T16:32:18.022Z,25.03
2019-05-19T16:34:21.871Z,25.01
2019-05-19T16:36:26.750Z,24.97
2019-05-19T16:38:30.555Z,24.95
2019-05-19T16:40:34.447Z,24.93
2019-05-19T16:42:38.277Z,24.88
2019-05-19T16:44:42.076Z,24.86
2019-05-19T16:46:45.945Z,24.85
2019-05-19T16:48:49.774Z,24.79
2019-05-19T16:50:53.591Z,24.74
2019-05-19T16:52:57.455Z,24.68
2019-05-19T16:55:19.325Z,24.63
2019-05-19T16:57:23.135Z,24.59
2019-05-19T16:59:26.922Z,24.55
2019-05-19T17:01:30.743Z,24.48
2019-05-19T17:03:34.521Z,24.44
2019-05-19T17:05:38.348Z,24.40
2019-05-19T17:07:42.123Z,24.39
2019-05-19T17:09:45.959Z,24.36
2019-05-19T17:11:49.739Z,24.32
2019-05-19T17:13:53.551Z,24.31
2019-05-19T17:15:57.366Z,24.30
2019-05-19T17:18:01.134Z,24.26
2019-05-19T17:20:05.490Z,24.25
2019-05-19T17:22:09.273Z,24.24
2019-05-19T17:24:13.215Z,24.21
2019-05-19T17:26:16.976Z,24.20
2019-05-19T17:28:20.771Z,24.18
2019-05-19T17:30:24.936Z,24.09
2019-05-19T17:32:28.686Z,23.99
2019-05-19T17:34:32.504Z,23.90
2019-05-19T17:36:36.303Z,23.84
2019-05-19T17:38:40.111Z,23.83
2019-05-19T17:40:43.915Z,23.81
2019-05-19T17:42:47.779Z,23.78
2019-05-19T17:44:51.517Z,23.69
2019-05-19T17:46:55.336Z,23.68
2019-05-19T17:48:59.111Z,23.64
2019-05-19T17:51:02.998Z,23.53
2019-05-19T17:53:07.221Z,23.48
2019-05-19T17:55:11.683Z,23.47
2019-05-19T17:57:15.677Z,23.46
2019-05-19T17:59:20.565Z,23.44
2019-05-19T18:01:24.429Z,23.42
2019-05-19T18:03:28.729Z,23.37
2019-05-19T18:05:32.662Z,23.21
2019-05-19T18:07:36.521Z,23.08
2019-05-19T18:09:41.443Z,23.03
2019-05-19T18:11:45.412Z,22.92
2019-05-19T18:13:49.156Z,22.85
2019-05-19T18:15:53.002Z,22.82
2019-05-19T18:17:57.874Z,22.78
2019-05-19T18:20:01.699Z,22.70
2019-05-19T18:22:05.656Z,22.63
2019-05-19T18:24:09.399Z,22.56
2019-05-19T18:26:13.244Z,22.53
2019-05-19T18:28:17.006Z,22.47
2019-05-19T18:30:20.966Z,22.44
2019-05-19T18:32:25.758Z,22.41
2019-05-19T18:34:29.541Z,22.36
2019-05-19T18:36:33.448Z,22.30
2019-05-19T18:38:37.323Z,22.26
2019-05-19T18:40:41.049Z,22.19
2019-05-19T18:42:44.873Z,22.18
2019-05-19T18:44:48.668Z,22.23
2019-05-19T18:46:52.470Z,22.24
2019-05-19T18:48:56.265Z,22.19
2019-05-19T18:51:00.439Z,22.13
2019-05-19T18:53:04.270Z,22.08
2019-05-19T18:55:08.635Z,22.02
2019-05-19T18:57:14.540Z,21.94
2019-05-19T18:59:18.395Z,21.86
2019-05-19T19:01:22.219Z,21.83
2019-05-19T19:03:26.354Z,21.80
2019-05-19T19:05:30.170Z,21.73
2019-05-19T19:07:51.756Z,21.67
2019-05-19T19:09:55.518Z,21.59
2019-05-19T19:11:59.284Z,21.51
2019-05-19T19:14:03.109Z,21.47
2019-05-19T19:16:06.975Z,21.43
2019-05-19T19:18:10.737Z,21.39
2019-05-19T19:20:14.802Z,21.29
2019-05-19T19:22:19.569Z,21.19
2019-05-19T19:24:23.354Z,21.10
2019-05-19T19:26:27.134Z,21.01
2019-05-19T19:28:30.970Z,20.92
2019-05-19T19:30:34.835Z,20.86
2019-05-19T19:32:38.671Z,20.82
2019-05-19T19:34:42.483Z,20.80
2019-05-19T19:36:46.266Z,20.83
2019-05-19T19:38:50.078Z,20.85
2019-05-19T19:40:54.474Z,20.78
2019-05-19T19:43:00.500Z,20.63
2019-05-19T19:45:04.666Z,20.48
2019-05-19T19:47:08.447Z,20.42
2019-05-19T19:49:12.293Z,20.39
2019-05-19T19:51:16.068Z,20.40
2019-05-19T19:53:19.861Z,20.43
2019-05-19T19:55:23.697Z,20.43
2019-05-19T19:57:27.539Z,20.40
2019-05-19T19:59:31.298Z,20.38
2019-05-19T20:01:35.100Z,20.37
2019-05-19T20:03:40.392Z,20.34
2019-05-19T20:05:44.459Z,20.36
2019-05-19T20:07:48.385Z,20.36
2019-05-19T20:09:54.272Z,20.35
2019-05-19T20:11:58.179Z,20.34
2019-05-19T20:14:02.267Z,20.30
2019-05-19T20:16:05.989Z,20.30
2019-05-19T20:18:09.875Z,20.29
2019-05-19T20:20:13.752Z,20.33
2019-05-19T20:22:17.517Z,20.40
2019-05-19T20:24:21.360Z,20.46
2019-05-19T20:26:25.182Z,20.52
2019-05-19T20:28:28.917Z,20.57
2019-05-19T20:30:36.104Z,20.62
2019-05-19T20:32:38.359Z,20.62
2019-05-19T20:34:42.169Z,20.58
2019-05-19T20:36:45.970Z,20.54
2019-05-19T20:38:49.881Z,20.50
2019-05-19T20:40:53.678Z,20.51
2019-05-19T20:42:57.556Z,20.47
2019-05-19T20:45:01.308Z,20.44
2019-05-19T20:47:05.156Z,20.43
2019-05-19T20:49:08.886Z,20.42
2019-05-19T20:51:12.687Z,20.43
2019-05-19T20:53:16.495Z,20.39
2019-05-19T20:55:21.033Z,20.30
2019-05-19T20:57:25.918Z,20.36
2019-05-19T20:59:29.663Z,20.36
2019-05-19T21:01:33.460Z,20.28
2019-05-19T21:03:37.252Z,20.28
2019-05-19T21:05:41.113Z,20.31
2019-05-19T21:07:44.868Z,20.24
2019-05-19T21:09:48.687Z,20.04
2019-05-19T21:11:52.543Z,20.04
2019-05-19T21:13:56.385Z,19.97
2019-05-19T21:16:00.254Z,19.96
2019-05-19T21:18:04.228Z,19.95
2019-05-19T21:20:08.591Z,19.97
2019-05-19T21:22:12.402Z,19.97
2019-05-19T21:24:16.205Z,20.02
2019-05-19T21:26:20.087Z,20.04
2019-05-19T21:28:23.815Z,20.04
2019-05-19T21:30:27.644Z,20.04
2019-05-19T21:32:31.418Z,20.01
2019-05-19T21:34:35.248Z,19.98
2019-05-19T21:36:40.083Z,19.93
2019-05-19T21:38:43.879Z,19.86
2019-05-19T21:40:47.668Z,19.67
2019-05-19T21:42:51.469Z,19.67
2019-05-19T21:44:55.289Z,19.53
2019-05-19T21:46:59.074Z,19.39
2019-05-19T21:49:02.866Z,19.39
2019-05-19T21:51:06.676Z,19.36
2019-05-19T21:53:10.818Z,19.32
2019-05-19T21:55:14.696Z,19.31
2019-05-19T21:57:18.500Z,19.30
2019-05-19T21:59:23.315Z,19.25
2019-05-19T22:01:27.276Z,19.18
2019-05-19T22:03:33.067Z,19.08
2019-05-19T22:05:51.210Z,19.02
2019-05-19T22:08:13.785Z,19.01
2019-05-19T22:10:17.720Z,19.01
2019-05-19T22:12:22.492Z,19.03
2019-05-19T22:14:26.293Z,18.98
2019-05-19T22:16:30.107Z,18.92
2019-05-19T22:18:33.995Z,18.86
2019-05-19T22:20:37.833Z,18.80
2019-05-19T22:22:41.608Z,18.77
2019-05-19T22:24:45.497Z,18.73
2019-05-19T22:26:49.339Z,18.69
2019-05-19T22:28:53.127Z,18.68
2019-05-19T22:30:56.929Z,18.64
2019-05-19T22:33:00.723Z,18.60
2019-05-19T22:35:04.790Z,18.57
2019-05-19T22:37:08.625Z,18.51
2019-05-19T22:39:12.577Z,18.45
2019-05-19T22:41:16.358Z,18.40
2019-05-19T22:43:20.170Z,18.37
2019-05-19T22:45:24.068Z,18.34
2019-05-19T22:47:27.948Z,18.30
2019-05-19T22:49:50.901Z,18.30
2019-05-19T22:51:54.795Z,18.30
2019-05-19T22:53:58.621Z,18.31
2019-05-19T22:56:02.461Z,18.31
2019-05-19T22:58:06.225Z,18.31
2019-05-19T23:00:10.682Z,18.32
2019-05-19T23:02:14.469Z,18.28
2019-05-19T23:04:18.240Z,18.25
2019-05-19T23:06:22.075Z,18.25
2019-05-19T23:08:25.928Z,18.24
2019-05-19T23:10:29.857Z,18.18
2019-05-19T23:12:33.675Z,18.13
2019-05-19T23:14:37.472Z,18.09
2019-05-19T23:16:41.283Z,18.04
2019-05-19T23:18:45.069Z,17.98
2019-05-19T23:20:48.891Z,17.93
2019-05-19T23:22:53.005Z,17.89
2019-05-19T23:24:57.341Z,17.85
2019-05-19T23:27:01.133Z,17.83
2019-05-19T23:29:04.990Z,17.78
2019-05-19T23:31:08.838Z,17.71
2019-05-19T23:33:12.628Z,17.63
2019-05-19T23:35:16.575Z,17.59
2019-05-19T23:37:20.340Z,17.56
2019-05-19T23:39:24.131Z,17.52
2019-05-19T23:41:27.947Z,17.45
2019-05-19T23:43:31.736Z,17.39
2019-05-19T23:45:35.545Z,17.36
2019-05-19T23:47:39.352Z,17.30
2019-05-19T23:49:43.151Z,17.27
2019-05-19T23:51:46.960Z,17.23
2019-05-19T23:53:50.761Z,17.19
2019-05-19T23:55:54.563Z,17.20
2019-05-19T23:57:58.345Z,17.24
